Time;durP1;ratioP1;P1;durP2;ratioP2;P2;SDS_P1;SDS_P2;PMS_P1;PMS_P2;Temp;Humidity;BMP_temperature;BMP_pressure;BME280_temperature;BME280_humidity;BME280_pressure;Samples;Min_cycle;Max_cycle;Signal;HPM_P1;HPM_P2
2022/09/18 00:01:58;;;;;;;1.47;1.00;;;12.20;45.30;;;;;;10564104;28;20226;-76
2022/09/18 00:07:02;;;;;;;1.20;0.97;;;12.30;45.30;;;;;;10560579;28;20243;-75
2022/09/18 00:12:06;;;;;;;2.53;1.20;;;12.30;45.50;;;;;;10553898;28;20683;-75
2022/09/18 00:17:09;;;;;;;3.07;1.20;;;12.30;45.30;;;;;;10535931;28;20227;-75
2022/09/18 00:22:13;;;;;;;1.90;1.10;;;12.30;45.20;;;;;;10535624;28;20238;-76
2022/09/18 00:27:16;;;;;;;1.27;0.90;;;12.30;45.30;;;;;;10562493;28;20222;-75
2022/09/18 00:32:19;;;;;;;3.03;1.20;;;12.30;45.10;;;;;;10569961;28;20230;-75
2022/09/18 00:37:24;;;;;;;2.00;1.10;;;12.30;45.10;;;;;;10562647;28;20226;-76
2022/09/18 00:42:27;;;;;;;2.77;1.00;;;12.30;45.10;;;;;;10551495;28;20227;-76
2022/09/18 00:47:33;;;;;;;3.63;1.00;;;12.30;44.90;;;;;;10558171;28;20222;-75
2022/09/18 00:52:49;;;;;;;2.37;1.10;;;12.30;45.00;;;;;;10564640;28;20288;-75
2022/09/18 00:57:56;;;;;;;1.13;1.00;;;12.30;45.10;;;;;;10572985;28;20283;-75
2022/09/18 01:03:00;;;;;;;2.83;1.07;;;12.20;44.90;;;;;;10566914;28;20235;-76
2022/09/18 01:08:19;;;;;;;4.43;1.07;;;12.10;44.90;;;;;;10567701;28;20227;-75
2022/09/18 01:13:30;;;;;;;1.83;1.03;;;12.00;45.20;;;;;;10564685;28;20253;-75
2022/09/18 01:18:43;;;;;;;2.70;1.10;;;12.00;45.30;;;;;;10574308;28;20223;-76
2022/09/18 01:24:14;;;;;;;1.53;0.90;;;11.90;45.60;;;;;;10565348;28;20270;-75
2022/09/18 01:29:25;;;;;;;1.43;1.00;;;11.90;45.70;;;;;;10572348;27;20225;-76
2022/09/18 01:34:34;;;;;;;0.70;0.70;;;11.90;45.80;;;;;;10575836;28;20703;-75
2022/09/18 01:39:41;;;;;;;4.13;1.00;;;11.90;45.90;;;;;;10575916;28;20245;-75
2022/09/18 01:44:47;;;;;;;2.83;1.17;;;11.90;45.70;;;;;;10576516;28;20231;-75
2022/09/18 01:49:53;;;;;;;3.70;1.30;;;12.00;45.60;;;;;;10572277;28;20279;-75
2022/09/18 01:55:00;;;;;;;3.47;1.10;;;12.10;45.50;;;;;;10574662;27;20787;-76
2022/09/18 02:00:08;;;;;;;1.67;1.03;;;12.10;45.50;;;;;;10570035;27;20231;-75
2022/09/18 02:05:20;;;;;;;3.03;1.10;;;12.20;45.70;;;;;;10569876;28;20226;-75
2022/09/18 02:10:25;;;;;;;2.10;1.07;;;12.20;45.70;;;;;;10573302;27;20227;-76
2022/09/18 02:15:35;;;;;;;2.47;1.50;;;12.20;45.50;;;;;;10575056;28;20807;-75
2022/09/18 02:20:43;;;;;;;3.00;1.17;;;12.10;45.60;;;;;;10575312;27;20272;-76
2022/09/18 02:25:51;;;;;;;1.97;1.03;;;12.20;45.80;;;;;;10572626;27;20272;-76
2022/09/18 02:30:57;;;;;;;3.63;1.20;;;12.20;45.90;;;;;;10573639;28;20256;-76
2022/09/18 02:36:24;;;;;;;1.93;1.07;;;12.20;45.70;;;;;;10573765;27;20227;-75
2022/09/18 02:41:40;;;;;;;3.07;1.40;;;12.30;46.00;;;;;;10573239;27;20229;-74
2022/09/18 02:46:57;;;;;;;4.20;1.30;;;12.30;46.10;;;;;;10570655;28;20783;-75
2022/09/18 02:52:04;;;;;;;2.07;1.30;;;12.30;46.40;;;;;;10573801;27;21108;-75
2022/09/18 02:57:13;;;;;;;3.20;1.20;;;12.30;46.20;;;;;;10575420;27;20288;-76
2022/09/18 03:02:21;;;;;;;2.40;1.10;;;12.20;46.20;;;;;;10576533;27;20234;-76
2022/09/18 03:07:25;;;;;;;2.87;1.23;;;12.20;46.60;;;;;;10571150;27;20218;-75
2022/09/18 03:12:28;;;;;;;4.30;1.30;;;12.20;46.10;;;;;;10571733;27;20222;-76
2022/09/18 03:17:32;;;;;;;2.83;1.00;;;12.20;46.20;;;;;;10572558;27;20242;-75
2022/09/18 03:22:35;;;;;;;3.13;1.20;;;12.20;46.40;;;;;;10571040;27;20226;-75
2022/09/18 03:27:38;;;;;;;4.70;1.30;;;12.20;46.90;;;;;;10568231;27;20227;-75
2022/09/18 03:32:43;;;;;;;4.07;1.20;;;12.20;46.30;;;;;;10567086;28;20223;-75
2022/09/18 03:37:46;;;;;;;2.83;1.40;;;12.20;46.50;;;;;;10566875;27;20230;-76
2022/09/18 03:42:49;;;;;;;2.00;1.17;;;12.20;46.40;;;;;;10568917;28;20245;-75
2022/09/18 03:47:54;;;;;;;2.40;1.00;;;12.30;46.50;;;;;;10565811;28;20234;-75
2022/09/18 03:52:57;;;;;;;2.90;1.10;;;12.30;46.60;;;;;;10570686;27;20715;-76
2022/09/18 03:58:00;;;;;;;2.50;1.27;;;12.30;46.40;;;;;;10567617;27;20238;-76
2022/09/18 04:03:05;;;;;;;2.97;1.10;;;12.30;46.40;;;;;;10562069;28;20226;-76
2022/09/18 04:08:08;;;;;;;3.80;1.30;;;12.30;46.70;;;;;;10566114;28;20233;-75
2022/09/18 04:13:11;;;;;;;3.07;1.20;;;12.30;46.40;;;;;;10564808;28;20223;-76
2022/09/18 04:18:16;;;;;;;3.00;1.20;;;12.30;46.50;;;;;;10570537;27;20274;-75
2022/09/18 04:23:19;;;;;;;2.67;1.20;;;12.30;47.00;;;;;;10567666;27;20575;-75
2022/09/18 04:28:25;;;;;;;3.53;1.30;;;12.20;46.60;;;;;;10567429;28;20228;-76
2022/09/18 04:33:29;;;;;;;5.67;1.40;;;12.20;46.60;;;;;;10569302;28;20226;-76
2022/09/18 04:38:32;;;;;;;4.10;1.20;;;12.30;46.90;;;;;;10563388;28;20223;-75
2022/09/18 04:43:35;;;;;;;1.83;1.00;;;12.30;46.60;;;;;;10566647;28;20220;-75
2022/09/18 04:48:40;;;;;;;2.30;1.00;;;12.20;46.50;;;;;;10555342;28;20229;-75
2022/09/18 04:53:43;;;;;;;2.80;1.23;;;12.20;46.80;;;;;;10568549;28;20223;-75
2022/09/18 04:58:46;;;;;;;3.13;1.10;;;12.20;46.30;;;;;;10564821;28;20272;-75
2022/09/18 05:03:51;;;;;;;2.97;1.10;;;12.20;46.30;;;;;;10566690;28;20227;-76
2022/09/18 05:08:54;;;;;;;2.70;1.10;;;12.20;46.40;;;;;;10559139;28;20231;-75
2022/09/18 05:13:57;;;;;;;2.33;1.10;;;12.10;46.30;;;;;;10553536;28;20226;-75
2022/09/18 05:19:01;;;;;;;1.70;1.10;;;12.10;46.40;;;;;;10569995;28;20227;-75
2022/09/18 05:24:05;;;;;;;1.87;1.10;;;12.10;46.60;;;;;;10573472;28;20222;-75
2022/09/18 05:29:08;;;;;;;2.90;1.20;;;12.10;46.60;;;;;;10563169;27;20219;-75
2022/09/18 05:34:13;;;;;;;2.47;1.10;;;12.10;46.70;;;;;;10565690;28;20231;-75
2022/09/18 05:39:16;;;;;;;2.07;1.10;;;12.10;46.60;;;;;;10571950;27;20223;-75
2022/09/18 05:44:20;;;;;;;4.33;1.43;;;12.10;46.60;;;;;;10570203;28;20746;-75
2022/09/18 05:49:24;;;;;;;1.60;1.00;;;12.10;46.50;;;;;;10572755;28;20227;-76
2022/09/18 05:54:27;;;;;;;1.87;1.10;;;12.10;46.80;;;;;;10571012;28;20231;-76
2022/09/18 05:59:30;;;;;;;3.23;1.33;;;12.20;47.00;;;;;;10562846;28;20628;-75
2022/09/18 06:04:35;;;;;;;2.23;1.17;;;12.20;46.70;;;;;;10571848;28;20231;-75
2022/09/18 06:09:38;;;;;;;3.03;1.40;;;12.30;46.90;;;;;;10560214;28;20227;-75
2022/09/18 06:14:41;;;;;;;2.30;1.13;;;12.30;46.70;;;;;;10569877;28;20234;-76
2022/09/18 06:19:46;;;;;;;4.53;1.50;;;12.40;46.70;;;;;;10565108;28;20243;-76
2022/09/18 06:24:49;;;;;;;4.87;1.13;;;12.50;47.40;;;;;;10561458;28;20258;-76
2022/09/18 06:29:53;;;;;;;2.07;1.30;;;12.50;46.70;;;;;;10565691;28;20226;-76
2022/09/18 06:34:57;;;;;;;1.83;1.30;;;12.60;46.60;;;;;;10563380;27;20231;-75
2022/09/18 06:40:00;;;;;;;1.93;1.27;;;12.60;46.60;;;;;;10565334;28;20706;-75
2022/09/18 06:45:04;;;;;;;2.33;1.20;;;12.60;46.30;;;;;;10572587;28;20231;-75
2022/09/18 06:50:09;;;;;;;2.40;1.20;;;12.70;46.50;;;;;;10580087;28;20252;-75
2022/09/18 06:55:13;;;;;;;2.07;1.10;;;12.70;46.50;;;;;;10539188;28;20715;-75
2022/09/18 07:00:16;;;;;;;2.47;1.17;;;12.70;46.40;;;;;;10564364;28;20272;-75
2022/09/18 07:05:20;;;;;;;2.07;1.00;;;12.70;46.60;;;;;;10576939;28;20246;-75
2022/09/18 07:10:24;;;;;;;2.07;1.20;;;12.70;46.90;;;;;;10555070;28;20281;-75
2022/09/18 07:15:28;;;;;;;1.93;1.10;;;12.70;46.80;;;;;;10575342;28;20234;-75
2022/09/18 07:20:32;;;;;;;2.30;1.00;;;12.80;46.80;;;;;;10614741;27;20226;-75
2022/09/18 07:25:35;;;;;;;1.93;1.20;;;12.80;47.10;;;;;;10591014;27;20223;-74
2022/09/18 07:30:40;;;;;;;1.60;1.30;;;12.80;47.00;;;;;;10572887;28;20269;-75
2022/09/18 07:35:44;;;;;;;1.73;1.20;;;12.90;47.20;;;;;;10562728;28;20299;-75
2022/09/18 07:40:47;;;;;;;2.00;1.77;;;13.00;47.30;;;;;;10575834;27;20234;-75
2022/09/18 07:45:50;;;;;;;11.63;10.03;;;13.00;47.10;;;;;;10584710;28;20226;-75
2022/09/18 07:50:58;;;;;;;2.30;2.00;;;13.00;47.30;;;;;;10568759;28;20249;-76
2022/09/18 07:56:01;;;;;;;3.20;2.47;;;13.00;47.50;;;;;;10566818;28;20230;-75
2022/09/18 08:01:05;;;;;;;2.20;2.00;;;13.00;47.30;;;;;;10583466;27;20223;-75
2022/09/18 08:06:10;;;;;;;3.30;1.90;;;13.00;47.40;;;;;;10579238;28;20223;-75
2022/09/18 08:11:13;;;;;;;1.73;1.63;;;13.10;47.50;;;;;;10567194;28;20227;-75
2022/09/18 08:16:17;;;;;;;2.53;1.80;;;13.10;47.60;;;;;;10566449;28;20227;-75
2022/09/18 08:21:21;;;;;;;1.53;1.33;;;13.10;47.50;;;;;;10569936;28;20606;-75
2022/09/18 08:26:25;;;;;;;1.80;1.00;;;13.20;47.80;;;;;;10577685;28;20223;-74
2022/09/18 08:31:28;;;;;;;2.33;1.10;;;13.20;47.30;;;;;;10580206;28;20234;-75
2022/09/18 08:36:33;;;;;;;1.50;1.40;;;13.20;47.40;;;;;;10568102;28;20244;-76
2022/09/18 08:41:55;;;;;;;2.53;2.13;;;13.20;47.60;;;;;;10538942;28;20227;-76
2022/09/18 08:47:04;;;;;;;2.60;1.70;;;13.20;48.00;;;;;;10537889;28;20239;-77
2022/09/18 08:52:14;;;;;;;1.87;1.60;;;13.20;47.90;;;;;;10538145;28;20254;-76
2022/09/18 08:57:21;;;;;;;1.67;1.57;;;13.20;48.00;;;;;;10541038;28;20235;-75
2022/09/18 09:02:37;;;;;;;2.80;1.60;;;13.30;47.90;;;;;;10537874;28;20231;-76
2022/09/18 09:08:04;;;;;;;1.37;1.27;;;13.30;48.20;;;;;;10540470;28;20251;-76
2022/09/18 09:13:30;;;;;;;2.77;1.63;;;13.30;48.30;;;;;;10528350;28;20220;-76
2022/09/18 09:18:44;;;;;;;2.07;1.87;;;13.30;48.30;;;;;;10558465;28;20234;-77
2022/09/18 09:24:03;;;;;;;2.63;1.97;;;13.30;48.40;;;;;;10555315;28;20231;-77
2022/09/18 09:29:14;;;;;;;1.70;1.33;;;13.30;48.70;;;;;;10557246;28;20720;-77
2022/09/18 09:34:22;;;;;;;1.90;1.50;;;13.40;48.90;;;;;;10547674;28;20225;-78
2022/09/18 09:39:31;;;;;;;2.20;1.67;;;13.40;48.90;;;;;;10556492;28;20287;-77
2022/09/18 09:44:40;;;;;;;1.90;1.20;;;13.40;48.90;;;;;;10546700;28;20862;-75
2022/09/18 09:49:50;;;;;;;1.40;1.30;;;13.50;48.90;;;;;;10560073;28;20890;-76
2022/09/18 09:54:57;;;;;;;2.33;1.30;;;13.60;49.50;;;;;;10561572;28;20304;-78
2022/09/18 10:00:08;;;;;;;1.67;1.30;;;13.70;49.30;;;;;;10571932;28;20227;-79
2022/09/18 10:05:22;;;;;;;1.90;1.47;;;13.80;49.60;;;;;;10551139;28;20744;-77
2022/09/18 10:10:33;;;;;;;2.17;1.40;;;13.80;49.70;;;;;;10564599;27;20230;-77
2022/09/18 10:15:39;;;;;;;1.30;1.00;;;13.90;49.90;;;;;;10570486;27;20257;-76
2022/09/18 10:20:44;;;;;;;0.83;0.83;;;14.00;48.80;;;;;;10566630;28;20230;-77
2022/09/18 10:25:52;;;;;;;1.07;0.90;;;14.10;49.00;;;;;;10570470;28;20276;-76
2022/09/18 10:30:59;;;;;;;1.30;1.20;;;14.10;49.40;;;;;;10572228;28;20227;-77
2022/09/18 10:36:09;;;;;;;1.03;0.80;;;14.30;49.60;;;;;;10563231;28;20223;-78
2022/09/18 10:41:30;;;;;;;1.67;1.20;;;14.40;48.80;;;;;;10571230;27;20219;-77
2022/09/18 10:46:35;;;;;;;1.20;1.00;;;14.50;49.20;;;;;;10576557;28;20276;-78
2022/09/18 10:51:39;;;;;;;0.80;0.80;;;14.60;48.50;;;;;;10575013;27;20227;-78
2022/09/18 10:56:43;;;;;;;0.90;0.90;;;14.70;48.60;;;;;;10573734;28;20216;-79
2022/09/18 11:01:46;;;;;;;1.60;0.83;;;14.80;48.20;;;;;;10580291;28;20245;-78
2022/09/18 11:06:51;;;;;;;1.73;0.80;;;14.80;47.90;;;;;;10576429;28;20318;-77
2022/09/18 11:11:55;;;;;;;1.93;1.20;;;14.90;47.90;;;;;;10573886;28;20231;-77
2022/09/18 11:17:01;;;;;;;1.23;1.20;;;14.90;47.90;;;;;;10547569;28;20231;-77
2022/09/18 11:22:07;;;;;;;2.63;1.60;;;15.00;47.50;;;;;;10548027;28;20660;-78
2022/09/18 11:27:20;;;;;;;1.20;1.10;;;15.10;47.30;;;;;;10582054;27;20984;-78
2022/09/18 11:32:25;;;;;;;1.43;1.10;;;15.10;46.70;;;;;;10573817;28;20219;-78
2022/09/18 11:37:40;;;;;;;1.17;0.90;;;15.10;46.80;;;;;;10580925;28;20234;-78
2022/09/18 11:42:47;;;;;;;1.63;1.53;;;15.10;46.60;;;;;;10585835;27;20218;-78
2022/09/18 11:47:57;;;;;;;1.63;0.97;;;15.10;46.50;;;;;;10582396;27;20223;-78
2022/09/18 11:53:05;;;;;;;1.20;1.10;;;15.00;46.60;;;;;;10581361;27;20231;-78
2022/09/18 11:58:16;;;;;;;1.60;1.20;;;15.00;46.50;;;;;;10554992;28;20703;-78
2022/09/18 12:03:24;;;;;;;1.10;1.00;;;15.00;46.80;;;;;;10571953;28;20235;-78
2022/09/18 12:08:41;;;;;;;2.50;0.73;;;15.10;46.30;;;;;;10575152;28;20234;-77
2022/09/18 12:13:54;;;;;;;1.10;1.00;;;15.10;46.10;;;;;;10562845;28;20271;-78
2022/09/18 12:19:04;;;;;;;1.37;1.00;;;15.20;46.30;;;;;;10609678;27;20868;-78
2022/09/18 12:24:14;;;;;;;1.80;1.03;;;15.20;46.00;;;;;;10590384;27;20230;-78
2022/09/18 12:29:28;;;;;;;1.30;1.20;;;15.30;45.40;;;;;;10552453;28;20708;-78
2022/09/18 12:34:40;;;;;;;1.17;0.90;;;15.30;45.20;;;;;;10560456;28;20716;-77
2022/09/18 12:40:05;;;;;;;3.50;1.10;;;15.30;44.60;;;;;;10546778;28;20277;-77
2022/09/18 12:45:36;;;;;;;1.43;1.30;;;15.30;44.70;;;;;;10557337;28;20249;-77
2022/09/18 12:50:55;;;;;;;1.03;1.00;;;15.30;45.10;;;;;;10560673;28;20223;-77
2022/09/18 12:56:15;;;;;;;1.40;1.10;;;15.30;44.60;;;;;;10569451;28;20967;-78
2022/09/18 13:01:27;;;;;;;1.67;1.10;;;15.40;44.80;;;;;;10560151;28;20707;-77
2022/09/18 13:06:38;;;;;;;1.10;1.00;;;15.50;44.80;;;;;;10562410;28;20234;-77
2022/09/18 13:11:47;;;;;;;1.60;1.07;;;15.50;44.80;;;;;;10560718;28;20260;-77
2022/09/18 13:16:56;;;;;;;1.00;0.90;;;15.60;44.90;;;;;;10563251;28;20230;-76
2022/09/18 13:22:05;;;;;;;2.17;1.10;;;15.70;44.30;;;;;;10562583;27;20231;-77
2022/09/18 13:27:12;;;;;;;2.73;1.20;;;15.70;43.60;;;;;;10566718;27;20272;-77
2022/09/18 13:32:19;;;;;;;1.57;1.00;;;15.70;43.40;;;;;;10567717;28;20237;-76
2022/09/18 13:37:24;;;;;;;4.20;1.10;;;15.70;42.60;;;;;;10568190;28;20254;-77
2022/09/18 13:42:30;;;;;;;1.30;0.80;;;15.70;43.40;;;;;;10563242;27;20264;-78
2022/09/18 13:47:57;;;;;;;1.33;0.90;;;15.80;43.50;;;;;;10550109;28;21117;-78
2022/09/18 13:53:02;;;;;;;1.63;1.10;;;15.80;42.00;;;;;;10573698;28;20317;-78
2022/09/18 13:58:38;;;;;;;1.37;1.00;;;15.90;43.40;;;;;;10563218;28;20235;-77
2022/09/18 14:03:42;;;;;;;1.23;1.03;;;16.00;43.00;;;;;;10575032;28;20711;-78
2022/09/18 14:08:46;;;;;;;1.87;1.07;;;16.00;42.50;;;;;;10574551;27;20800;-78
2022/09/18 14:13:52;;;;;;;1.77;1.03;;;16.10;43.00;;;;;;10570988;28;20230;-77
2022/09/18 14:19:02;;;;;;;1.23;0.90;;;16.10;42.40;;;;;;10577693;28;20233;-79
2022/09/18 14:24:36;;;;;;;2.20;1.10;;;16.20;42.10;;;;;;10575831;28;20227;-77
2022/09/18 14:29:40;;;;;;;1.40;1.00;;;16.30;41.90;;;;;;10578772;28;20221;-77
2022/09/18 14:34:44;;;;;;;2.10;1.10;;;16.30;42.60;;;;;;10573409;27;20218;-78
2022/09/18 14:39:47;;;;;;;2.00;0.97;;;16.30;42.10;;;;;;10571650;28;20219;-79
2022/09/18 14:44:57;;;;;;;1.77;1.00;;;16.40;42.40;;;;;;10581690;27;20231;-78
2022/09/18 14:50:02;;;;;;;1.23;1.00;;;16.40;41.50;;;;;;10579430;28;20260;-78
2022/09/18 14:55:10;;;;;;;1.87;1.20;;;16.40;42.10;;;;;;10575797;27;20715;-78
2022/09/18 15:00:18;;;;;;;1.23;0.97;;;16.50;41.20;;;;;;10581690;28;20218;-78
2022/09/18 15:05:25;;;;;;;1.80;1.00;;;16.50;40.90;;;;;;10573311;28;20239;-78
2022/09/18 15:10:28;;;;;;;2.40;0.90;;;16.50;41.00;;;;;;10575191;28;20226;-78
2022/09/18 15:15:34;;;;;;;1.67;1.00;;;16.50;40.90;;;;;;10568138;28;20223;-78
2022/09/18 15:20:46;;;;;;;1.73;0.80;;;16.40;40.10;;;;;;10568721;28;20227;-78
2022/09/18 15:25:53;;;;;;;1.33;1.23;;;16.40;40.40;;;;;;10569035;28;20228;-78
2022/09/18 15:30:59;;;;;;;2.07;1.13;;;16.30;40.30;;;;;;10549654;28;20231;-78
2022/09/18 15:36:05;;;;;;;2.33;1.20;;;16.30;40.50;;;;;;10566744;28;20235;-78
2022/09/18 15:41:23;;;;;;;3.30;1.30;;;16.30;39.90;;;;;;10570710;28;20360;-78
2022/09/18 15:46:29;;;;;;;1.23;1.00;;;16.20;39.50;;;;;;10558818;28;20230;-78
2022/09/18 15:51:37;;;;;;;1.20;1.10;;;16.20;40.30;;;;;;10557751;28;20262;-77
2022/09/18 15:56:50;;;;;;;1.57;1.30;;;16.20;39.90;;;;;;10558272;27;20950;-77
2022/09/18 16:01:53;;;;;;;1.10;0.90;;;16.10;39.40;;;;;;10571387;27;20227;-76
2022/09/18 16:07:00;;;;;;;2.07;1.10;;;16.10;40.40;;;;;;10565911;27;20729;-76
2022/09/18 16:12:39;;;;;;;1.33;0.97;;;16.10;39.50;;;;;;10557178;28;20222;-75
2022/09/18 16:18:02;;;;;;;2.60;0.93;;;16.00;39.70;;;;;;10556160;28;20227;-76
2022/09/18 16:23:19;;;;;;;2.57;1.30;;;16.00;38.80;;;;;;10565253;28;20223;-77
2022/09/18 16:28:25;;;;;;;3.53;1.50;;;15.90;39.00;;;;;;10566988;28;20241;-76
2022/09/18 16:33:31;;;;;;;1.67;1.10;;;15.90;39.70;;;;;;10558212;28;20223;-77
2022/09/18 16:38:35;;;;;;;2.33;1.43;;;15.90;39.70;;;;;;10565993;27;20219;-77
2022/09/18 16:43:38;;;;;;;2.53;1.60;;;15.90;39.50;;;;;;10562025;28;20214;-77
2022/09/18 16:48:42;;;;;;;3.07;1.50;;;15.90;40.10;;;;;;10565507;28;20224;-76
2022/09/18 16:53:46;;;;;;;2.03;1.47;;;15.90;40.00;;;;;;10547361;28;20281;-76
2022/09/18 16:58:51;;;;;;;2.20;1.40;;;15.80;39.50;;;;;;10569037;28;20234;-76
2022/09/18 17:03:54;;;;;;;3.17;2.03;;;15.80;39.20;;;;;;10579652;28;20223;-76
2022/09/18 17:08:59;;;;;;;3.17;1.63;;;15.70;39.70;;;;;;10556525;28;20230;-76
2022/09/18 17:14:03;;;;;;;1.30;1.10;;;15.70;39.40;;;;;;10572788;27;20223;-77
2022/09/18 17:19:06;;;;;;;1.40;1.30;;;15.60;39.80;;;;;;10572917;28;20218;-77
2022/09/18 17:24:11;;;;;;;1.93;1.33;;;15.60;39.80;;;;;;10565053;28;20731;-74
2022/09/18 17:29:15;;;;;;;1.70;1.60;;;15.60;40.10;;;;;;10556093;28;20227;-76
2022/09/18 17:34:18;;;;;;;3.70;1.30;;;15.60;39.80;;;;;;10572069;27;20232;-76
2022/09/18 17:39:22;;;;;;;3.33;1.50;;;15.60;39.80;;;;;;10569209;27;20606;-76
2022/09/18 17:44:26;;;;;;;2.50;1.20;;;15.60;39.40;;;;;;10568880;28;20231;-76
2022/09/18 17:49:31;;;;;;;1.30;1.20;;;15.60;39.70;;;;;;10573112;27;20269;-76
2022/09/18 17:54:36;;;;;;;2.03;1.30;;;15.50;39.30;;;;;;10569615;27;20244;-77
2022/09/18 17:59:40;;;;;;;2.13;1.40;;;15.50;39.00;;;;;;10564889;27;20231;-76
2022/09/18 18:04:44;;;;;;;2.80;1.20;;;15.50;39.50;;;;;;10571750;28;21108;-76
2022/09/18 18:09:48;;;;;;;1.23;1.10;;;15.50;39.30;;;;;;10569537;28;20230;-77
2022/09/18 18:14:51;;;;;;;3.03;1.23;;;15.50;39.00;;;;;;10576101;28;20718;-78
2022/09/18 18:19:56;;;;;;;1.20;1.10;;;15.40;39.40;;;;;;10584765;28;20219;-79
2022/09/18 18:25:01;;;;;;;2.77;1.10;;;15.40;39.50;;;;;;10590854;28;20239;-80
2022/09/18 18:30:07;;;;;;;1.70;1.10;;;15.40;39.00;;;;;;10584619;28;20226;-81
2022/09/18 18:35:10;;;;;;;2.17;1.10;;;15.40;39.30;;;;;;10580227;28;20695;-75
2022/09/18 18:40:15;;;;;;;2.10;1.10;;;15.40;39.50;;;;;;10563236;28;20227;-75
2022/09/18 18:45:19;;;;;;;1.23;1.00;;;15.40;39.30;;;;;;10539550;28;20232;-76
2022/09/18 18:50:22;;;;;;;1.23;1.13;;;15.40;39.60;;;;;;10555165;28;20280;-75
2022/09/18 18:55:27;;;;;;;1.23;1.10;;;15.30;39.60;;;;;;10581463;28;20230;-74
2022/09/18 19:00:30;;;;;;;1.40;0.90;;;15.20;39.50;;;;;;10567647;28;20228;-76
2022/09/18 19:05:34;;;;;;;1.17;1.07;;;15.10;39.90;;;;;;10566555;27;20713;-74
2022/09/18 19:10:39;;;;;;;1.97;1.40;;;15.10;40.00;;;;;;10566266;28;20770;-75
2022/09/18 19:15:42;;;;;;;1.60;1.30;;;15.10;39.80;;;;;;10560479;28;20218;-76
2022/09/18 19:20:48;;;;;;;1.07;0.90;;;15.10;40.10;;;;;;10557407;28;20219;-77
2022/09/18 19:25:55;;;;;;;1.20;1.10;;;15.00;40.00;;;;;;10565582;28;20288;-76
2022/09/18 19:31:03;;;;;;;1.07;0.90;;;15.00;40.50;;;;;;10564285;28;20227;-77
2022/09/18 19:36:07;;;;;;;1.73;0.90;;;14.90;40.30;;;;;;10562791;28;20254;-77
2022/09/18 19:41:18;;;;;;;0.90;0.90;;;14.90;40.60;;;;;;10560179;27;20231;-76
2022/09/18 19:46:25;;;;;;;4.40;2.57;;;14.80;40.50;;;;;;10552016;28;20871;-77
2022/09/18 19:51:29;;;;;;;4.00;1.73;;;14.70;40.80;;;;;;10565447;28;20231;-77
2022/09/18 19:56:34;;;;;;;1.63;1.53;;;14.70;41.70;;;;;;10560339;28;20222;-77
2022/09/18 20:01:45;;;;;;;1.80;1.20;;;14.60;40.90;;;;;;10563786;28;20244;-77
2022/09/18 20:06:48;;;;;;;2.23;1.40;;;14.50;41.00;;;;;;10565882;28;20838;-77
2022/09/18 20:11:53;;;;;;;1.87;1.10;;;14.50;41.00;;;;;;10561448;28;20222;-77
2022/09/18 20:16:56;;;;;;;1.93;1.23;;;14.40;41.10;;;;;;10559026;28;20238;-77
2022/09/18 20:22:01;;;;;;;1.90;1.30;;;14.40;41.50;;;;;;10564607;28;20253;-76
2022/09/18 20:27:14;;;;;;;2.17;1.30;;;14.40;41.40;;;;;;10557632;28;20219;-76
2022/09/18 20:32:17;;;;;;;1.47;1.10;;;14.40;41.50;;;;;;10559386;28;20305;-76
2022/09/18 20:37:23;;;;;;;1.77;1.13;;;14.30;41.40;;;;;;10562336;28;20231;-77
2022/09/18 20:42:30;;;;;;;1.77;1.20;;;14.30;41.50;;;;;;10564628;28;20258;-77
2022/09/18 20:47:35;;;;;;;1.43;1.33;;;14.30;41.80;;;;;;10561113;28;20249;-77
2022/09/18 20:52:41;;;;;;;2.00;1.20;;;14.30;41.70;;;;;;10557712;28;20222;-77
2022/09/18 20:57:46;;;;;;;1.80;1.10;;;14.30;41.70;;;;;;10564059;28;20922;-75
2022/09/18 21:02:52;;;;;;;1.10;1.00;;;14.30;41.80;;;;;;10564963;28;20230;-75
2022/09/18 21:07:56;;;;;;;2.87;1.07;;;14.20;41.70;;;;;;10563792;28;20860;-76
2022/09/18 21:13:03;;;;;;;1.50;0.97;;;14.20;41.80;;;;;;10563660;28;20215;-76
2022/09/18 21:18:08;;;;;;;2.07;1.10;;;14.10;42.10;;;;;;10563350;28;20227;-78
2022/09/18 21:28:35;;;;;;;1.13;0.93;;;13.90;42.30;;;;;;10560823;28;20711;-77
2022/09/18 21:33:38;;;;;;;1.90;0.87;;;13.90;42.70;;;;;;10563618;28;21071;-76
2022/09/18 21:38:41;;;;;;;3.40;1.07;;;13.80;42.50;;;;;;10567666;28;20268;-76
2022/09/18 21:43:49;;;;;;;1.60;1.03;;;13.80;42.90;;;;;;10570348;27;20226;-76
2022/09/18 21:48:53;;;;;;;1.00;0.90;;;13.70;43.20;;;;;;10570668;28;20227;-76
2022/09/18 21:53:57;;;;;;;1.40;1.17;;;13.60;43.10;;;;;;10575444;27;20227;-76
2022/09/18 21:59:04;;;;;;;1.77;1.10;;;13.60;43.10;;;;;;10574996;28;20230;-77
2022/09/18 22:04:07;;;;;;;1.80;1.20;;;13.60;43.10;;;;;;10574909;27;20226;-77
2022/09/18 22:09:13;;;;;;;1.37;1.10;;;13.50;43.00;;;;;;10571349;28;20616;-78
2022/09/18 22:14:19;;;;;;;2.03;1.00;;;13.50;43.00;;;;;;10575190;28;20249;-77
2022/09/18 22:19:22;;;;;;;1.20;0.90;;;13.50;43.50;;;;;;10574295;28;20837;-78
2022/09/18 22:24:27;;;;;;;1.63;1.10;;;13.50;43.00;;;;;;10572840;28;20280;-77
2022/09/18 22:29:33;;;;;;;2.20;1.10;;;13.50;43.00;;;;;;10574396;28;20230;-78
2022/09/18 22:34:37;;;;;;;1.97;1.10;;;13.40;43.70;;;;;;10569189;27;20234;-78
2022/09/18 22:39:40;;;;;;;1.60;0.93;;;13.30;43.20;;;;;;10572918;28;20219;-77
2022/09/18 22:44:45;;;;;;;2.37;1.00;;;13.30;43.50;;;;;;10572343;28;20675;-78
2022/09/18 22:49:48;;;;;;;2.23;1.10;;;13.20;44.00;;;;;;10576137;27;20223;-77
2022/09/18 22:54:51;;;;;;;2.33;1.10;;;13.20;43.90;;;;;;10573868;27;20223;-77
2022/09/18 22:59:56;;;;;;;2.40;1.20;;;13.20;44.10;;;;;;10566189;28;20227;-77
2022/09/18 23:05:00;;;;;;;2.67;1.10;;;13.20;44.60;;;;;;10568094;28;20975;-77
2022/09/18 23:10:06;;;;;;;1.43;1.07;;;13.20;43.90;;;;;;10568573;28;20226;-76
2022/09/18 23:15:11;;;;;;;1.97;1.00;;;13.10;44.60;;;;;;10565470;28;20231;-77
2022/09/18 23:20:15;;;;;;;1.47;1.10;;;13.10;44.30;;;;;;10570963;28;20219;-76
2022/09/18 23:25:18;;;;;;;1.20;1.10;;;13.10;44.30;;;;;;10569985;27;20556;-77
2022/09/18 23:30:24;;;;;;;1.47;1.10;;;13.00;44.20;;;;;;10566780;28;20247;-77
2022/09/18 23:35:27;;;;;;;2.30;1.20;;;13.00;44.80;;;;;;10569146;28;20247;-76
2022/09/18 23:40:31;;;;;;;1.40;1.10;;;13.00;44.50;;;;;;10565084;28;20223;-76
2022/09/18 23:45:35;;;;;;;1.43;1.10;;;13.00;44.60;;;;;;10567805;28;20249;-76
2022/09/18 23:50:42;;;;;;;0.70;0.70;;;13.00;44.90;;;;;;10567554;28;20268;-78
2022/09/18 23:55:45;;;;;;;0.70;0.70;;;12.90;43.40;;;;;;10567061;28;20231;-78
